Blue Island, Illinois
Current Conditions -  °F | °C
As of 5:53 PM on Sunday 25 Jan 2015 (Local Time) from KMDW Reporting Station
Light Snow Light Snow  
Wind Chill: 16°   Ceiling: 2600
Heat Index: 29°   Visibility: 10mi
Dew Point: 20°   Wind: 18mph
Humidity: 69%   Direction: 20°NNE
Pressure: 29.94"   Gusts: 26mph
Location:  41.66°N, 87.68°W
Report Text: KMDW 252353Z 02016G23KT 10SM -SN BKN026 OVC032 M02/M07 A2994 RMK AO2 SNB38 SLP149 4/001 P0000 60000 T10171067 10006 21017 52030
Loading
Personal Weather Stations






























Interactive Weather Map New forecast layout! Learn more

10-Day Weather Forecast

Advertisements
Track Severe Weather on mobile